sensor_id;sensor_type;location;lat;lon;timestamp;pressure;altitude;pressure_sealevel;temperature;humidity
11413;BME280;5762;43.256;26.960;2024-01-15T00:01:42;99248.88;;;2.32;100.00
11413;BME280;5762;43.256;26.960;2024-01-15T00:07:14;99246.93;;;2.23;100.00
11413;BME280;5762;43.256;26.960;2024-01-15T00:12:46;99253.61;;;2.23;100.00
11413;BME280;5762;43.256;26.960;2024-01-15T00:18:18;99231.78;;;2.31;100.00
11413;BME280;5762;43.256;26.960;2024-01-15T00:23:50;99227.80;;;2.33;100.00
11413;BME280;5762;43.256;26.960;2024-01-15T00:29:21;99214.21;;;2.43;100.00
11413;BME280;5762;43.256;26.960;2024-01-15T00:34:53;99227.14;;;2.19;100.00
11413;BME280;5762;43.256;26.960;2024-01-15T00:40:25;99243.45;;;1.88;100.00
11413;BME280;5762;43.256;26.960;2024-01-15T00:45:57;99249.11;;;1.64;100.00
11413;BME280;5762;43.256;26.960;2024-01-15T00:51:29;99255.35;;;1.51;100.00
11413;BME280;5762;43.256;26.960;2024-01-15T00:57:01;99269.55;;;1.56;100.00
11413;BME280;5762;43.256;26.960;2024-01-15T01:02:26;99268.27;;;1.88;100.00
11413;BME280;5762;43.256;26.960;2024-01-15T01:04:55;99243.01;;;1.98;100.00
11413;BME280;5762;43.256;26.960;2024-01-15T01:10:27;99221.06;;;1.91;100.00
11413;BME280;5762;43.256;26.960;2024-01-15T01:15:58;99213.04;;;1.89;100.00
11413;BME280;5762;43.256;26.960;2024-01-15T01:21:29;99220.54;;;1.92;100.00
11413;BME280;5762;43.256;26.960;2024-01-15T01:23:58;99233.20;;;2.07;100.00
11413;BME280;5762;43.256;26.960;2024-01-15T01:29:30;99214.91;;;1.88;100.00
11413;BME280;5762;43.256;26.960;2024-01-15T01:35:01;99206.85;;;1.83;100.00
11413;BME280;5762;43.256;26.960;2024-01-15T01:40:34;99213.83;;;1.30;100.00
11413;BME280;5762;43.256;26.960;2024-01-15T01:46:06;99211.77;;;1.13;100.00
11413;BME280;5762;43.256;26.960;2024-01-15T01:51:32;99225.98;;;0.97;100.00
11413;BME280;5762;43.256;26.960;2024-01-15T01:54:02;99234.53;;;0.99;100.00
11413;BME280;5762;43.256;26.960;2024-01-15T01:59:35;99244.21;;;0.86;100.00
11413;BME280;5762;43.256;26.960;2024-01-15T02:02:03;99253.56;;;0.88;100.00
11413;BME280;5762;43.256;26.960;2024-01-15T02:07:34;99247.64;;;0.84;100.00
11413;BME280;5762;43.256;26.960;2024-01-15T02:13:02;99246.84;;;0.83;100.00
11413;BME280;5762;43.256;26.960;2024-01-15T02:15:30;99241.75;;;0.82;100.00
11413;BME280;5762;43.256;26.960;2024-01-15T02:21:02;99249.50;;;0.45;100.00
11413;BME280;5762;43.256;26.960;2024-01-15T02:23:30;99258.98;;;0.38;100.00
11413;BME280;5762;43.256;26.960;2024-01-15T02:29:01;99268.64;;;0.25;100.00
11413;BME280;5762;43.256;26.960;2024-01-15T02:34:33;99277.16;;;0.24;100.00
11413;BME280;5762;43.256;26.960;2024-01-15T02:40:05;99281.58;;;0.19;100.00
11413;BME280;5762;43.256;26.960;2024-01-15T02:45:37;99275.95;;;0.32;100.00
11413;BME280;5762;43.256;26.960;2024-01-15T02:51:09;99283.58;;;0.45;100.00
11413;BME280;5762;43.256;26.960;2024-01-15T02:56:41;99287.66;;;0.70;100.00
11413;BME280;5762;43.256;26.960;2024-01-15T03:02:13;99280.67;;;0.63;100.00
11413;BME280;5762;43.256;26.960;2024-01-15T03:07:40;99274.63;;;0.71;100.00
11413;BME280;5762;43.256;26.960;2024-01-15T03:10:08;99274.24;;;0.81;100.00
11413;BME280;5762;43.256;26.960;2024-01-15T03:15:40;99268.88;;;0.98;100.00
11413;BME280;5762;43.256;26.960;2024-01-15T03:21:12;99260.08;;;1.19;100.00
11413;BME280;5762;43.256;26.960;2024-01-15T03:23:40;99249.31;;;1.33;100.00
11413;BME280;5762;43.256;26.960;2024-01-15T03:26:09;99246.27;;;1.49;100.00
11413;BME280;5762;43.256;26.960;2024-01-15T03:31:41;99268.58;;;1.65;100.00
11413;BME280;5762;43.256;26.960;2024-01-15T03:37:14;99246.34;;;1.30;100.00
11413;BME280;5762;43.256;26.960;2024-01-15T03:39:42;99234.19;;;0.74;100.00
11413;BME280;5762;43.256;26.960;2024-01-15T03:45:09;99256.30;;;0.19;100.00
11413;BME280;5762;43.256;26.960;2024-01-15T03:47:38;99266.34;;;-0.03;100.00
11413;BME280;5762;43.256;26.960;2024-01-15T03:53:10;99297.98;;;-0.04;100.00
11413;BME280;5762;43.256;26.960;2024-01-15T03:58:42;99309.78;;;0.34;100.00
11413;BME280;5762;43.256;26.960;2024-01-15T04:01:11;99299.72;;;0.22;100.00
11413;BME280;5762;43.256;26.960;2024-01-15T04:06:42;99311.12;;;0.37;100.00
11413;BME280;5762;43.256;26.960;2024-01-15T04:12:14;99309.52;;;0.19;100.00
11413;BME280;5762;43.256;26.960;2024-01-15T04:17:46;99309.58;;;-0.10;100.00
11413;BME280;5762;43.256;26.960;2024-01-15T04:23:18;99340.71;;;-0.50;100.00
11413;BME280;5762;43.256;26.960;2024-01-15T04:28:49;99382.08;;;-0.80;100.00
11413;BME280;5762;43.256;26.960;2024-01-15T04:34:21;99413.84;;;-0.97;100.00
11413;BME280;5762;43.256;26.960;2024-01-15T04:39:53;99430.53;;;-0.76;100.00
11413;BME280;5762;43.256;26.960;2024-01-15T04:42:21;99437.73;;;-0.62;100.00
11413;BME280;5762;43.256;26.960;2024-01-15T04:47:53;99440.88;;;-0.77;100.00
11413;BME280;5762;43.256;26.960;2024-01-15T04:53:25;99454.73;;;-0.75;100.00
11413;BME280;5762;43.256;26.960;2024-01-15T04:58:57;99463.11;;;-0.80;100.00
11413;BME280;5762;43.256;26.960;2024-01-15T05:01:30;99473.53;;;-0.99;100.00
11413;BME280;5762;43.256;26.960;2024-01-15T05:03:55;99468.16;;;-1.14;100.00
11413;BME280;5762;43.256;26.960;2024-01-15T05:09:27;99477.91;;;-1.38;100.00
11413;BME280;5762;43.256;26.960;2024-01-15T05:14:59;99485.86;;;-1.38;100.00
11413;BME280;5762;43.256;26.960;2024-01-15T05:20:26;99492.19;;;-1.29;100.00
11413;BME280;5762;43.256;26.960;2024-01-15T05:22:54;99506.73;;;-1.11;100.00
11413;BME280;5762;43.256;26.960;2024-01-15T05:25:23;99504.07;;;-1.11;100.00
11413;BME280;5762;43.256;26.960;2024-01-15T05:30:55;99513.44;;;-1.09;100.00
11413;BME280;5762;43.256;26.960;2024-01-15T05:36:27;99516.63;;;-0.86;100.00
11413;BME280;5762;43.256;26.960;2024-01-15T05:38:55;99524.69;;;-0.72;100.00
11413;BME280;5762;43.256;26.960;2024-01-15T05:44:28;99495.42;;;-0.95;100.00
11413;BME280;5762;43.256;26.960;2024-01-15T05:50:00;99508.41;;;-1.08;100.00
11413;BME280;5762;43.256;26.960;2024-01-15T05:55:37;99517.52;;;-1.04;100.00
11413;BME280;5762;43.256;26.960;2024-01-15T06:01:04;99549.93;;;-1.04;100.00
11413;BME280;5762;43.256;26.960;2024-01-15T06:06:36;99546.98;;;-0.73;100.00
11413;BME280;5762;43.256;26.960;2024-01-15T06:12:07;99547.53;;;-1.03;100.00
11413;BME280;5762;43.256;26.960;2024-01-15T06:17:32;99580.92;;;-1.07;100.00
11413;BME280;5762;43.256;26.960;2024-01-15T06:20:01;99587.03;;;-0.86;100.00
11413;BME280;5762;43.256;26.960;2024-01-15T06:25:33;99573.09;;;-0.58;100.00
11413;BME280;5762;43.256;26.960;2024-01-15T06:28:02;99568.78;;;-0.38;100.00
11413;BME280;5762;43.256;26.960;2024-01-15T06:33:34;99533.27;;;-0.20;100.00
11413;BME280;5762;43.256;26.960;2024-01-15T06:39:06;99491.98;;;-0.11;100.00
11413;BME280;5762;43.256;26.960;2024-01-15T06:41:34;99475.80;;;0.05;100.00
11413;BME280;5762;43.256;26.960;2024-01-15T06:47:07;99449.63;;;0.13;100.00
11413;BME280;5762;43.256;26.960;2024-01-15T06:52:39;99411.58;;;0.27;100.00
11413;BME280;5762;43.256;26.960;2024-01-15T06:58:11;99399.98;;;0.50;100.00
11413;BME280;5762;43.256;26.960;2024-01-15T07:03:42;99399.77;;;0.68;100.00
11413;BME280;5762;43.256;26.960;2024-01-15T07:09:14;99399.77;;;0.68;100.00
11413;BME280;5762;43.256;26.960;2024-01-15T07:14:41;99413.75;;;0.78;100.00
11413;BME280;5762;43.256;26.960;2024-01-15T07:17:10;99412.78;;;0.84;100.00
11413;BME280;5762;43.256;26.960;2024-01-15T07:22:41;99424.82;;;1.03;100.00
11413;BME280;5762;43.256;26.960;2024-01-15T07:28:14;99405.68;;;1.25;100.00
11413;BME280;5762;43.256;26.960;2024-01-15T07:33:46;99394.85;;;1.54;100.00
11413;BME280;5762;43.256;26.960;2024-01-15T07:39:17;99384.56;;;1.62;100.00
11413;BME280;5762;43.256;26.960;2024-01-15T07:44:49;99359.60;;;1.71;100.00
11413;BME280;5762;43.256;26.960;2024-01-15T07:50:21;99361.61;;;1.86;100.00
11413;BME280;5762;43.256;26.960;2024-01-15T07:55:54;99324.65;;;2.26;100.00
11413;BME280;5762;43.256;26.960;2024-01-15T08:01:26;99293.58;;;2.50;100.00
11413;BME280;5762;43.256;26.960;2024-01-15T08:06:58;99238.37;;;2.60;100.00
11413;BME280;5762;43.256;26.960;2024-01-15T08:12:29;99231.03;;;2.88;100.00
11413;BME280;5762;43.256;26.960;2024-01-15T08:14:58;99206.53;;;3.14;100.00
11413;BME280;5762;43.256;26.960;2024-01-15T08:20:29;99180.97;;;3.46;100.00
11413;BME280;5762;43.256;26.960;2024-01-15T08:26:00;99167.31;;;3.60;100.00
11413;BME280;5762;43.256;26.960;2024-01-15T08:31:32;99150.75;;;3.78;100.00
11413;BME280;5762;43.256;26.960;2024-01-15T08:37:13;99086.66;;;4.30;100.00
11413;BME280;5762;43.256;26.960;2024-01-15T08:39:41;99083.42;;;4.38;100.00
11413;BME280;5762;43.256;26.960;2024-01-15T08:45:14;99072.14;;;4.46;100.00
11413;BME280;5762;43.256;26.960;2024-01-15T08:50:45;99036.19;;;4.99;100.00
11413;BME280;5762;43.256;26.960;2024-01-15T08:56:17;99029.55;;;5.25;100.00
11413;BME280;5762;43.256;26.960;2024-01-15T09:01:50;98974.17;;;5.66;100.00
11413;BME280;5762;43.256;26.960;2024-01-15T09:07:22;98975.92;;;5.78;100.00
11413;BME280;5762;43.256;26.960;2024-01-15T09:12:54;98968.91;;;6.06;100.00
11413;BME280;5762;43.256;26.960;2024-01-15T09:15:22;98955.59;;;6.20;100.00
11413;BME280;5762;43.256;26.960;2024-01-15T09:20:55;98942.95;;;6.39;100.00
11413;BME280;5762;43.256;26.960;2024-01-15T09:23:24;98924.25;;;6.31;100.00
11413;BME280;5762;43.256;26.960;2024-01-15T09:28:57;98923.86;;;6.41;100.00
11413;BME280;5762;43.256;26.960;2024-01-15T09:34:28;98940.08;;;6.33;100.00
11413;BME280;5762;43.256;26.960;2024-01-15T09:36:57;98944.13;;;6.52;100.00
11413;BME280;5762;43.256;26.960;2024-01-15T09:42:30;98921.64;;;6.45;100.00
11413;BME280;5762;43.256;26.960;2024-01-15T09:48:01;98895.67;;;6.73;100.00
11413;BME280;5762;43.256;26.960;2024-01-15T09:53:33;98873.23;;;6.64;100.00
11413;BME280;5762;43.256;26.960;2024-01-15T09:59:05;98883.79;;;6.77;100.00
11413;BME280;5762;43.256;26.960;2024-01-15T10:04:38;98878.33;;;6.82;100.00
11413;BME280;5762;43.256;26.960;2024-01-15T10:10:10;98873.69;;;7.01;100.00
11413;BME280;5762;43.256;26.960;2024-01-15T10:15:44;98846.53;;;7.00;100.00
11413;BME280;5762;43.256;26.960;2024-01-15T10:21:14;98847.95;;;7.11;100.00
11413;BME280;5762;43.256;26.960;2024-01-15T10:26:40;98831.88;;;7.22;100.00
11413;BME280;5762;43.256;26.960;2024-01-15T10:29:08;98830.38;;;7.16;100.00
11413;BME280;5762;43.256;26.960;2024-01-15T10:34:40;98825.84;;;7.14;100.00
11413;BME280;5762;43.256;26.960;2024-01-15T10:37:09;98808.76;;;7.21;100.00
11413;BME280;5762;43.256;26.960;2024-01-15T10:42:41;98797.13;;;7.37;100.00
11413;BME280;5762;43.256;26.960;2024-01-15T10:48:13;98787.11;;;7.54;100.00
11413;BME280;5762;43.256;26.960;2024-01-15T10:53:39;98782.97;;;7.70;100.00
11413;BME280;5762;43.256;26.960;2024-01-15T10:56:08;98782.45;;;7.82;100.00
11413;BME280;5762;43.256;26.960;2024-01-15T11:01:42;98778.62;;;7.96;100.00
11413;BME280;5762;43.256;26.960;2024-01-15T11:07:14;98745.20;;;8.20;100.00
11413;BME280;5762;43.256;26.960;2024-01-15T11:12:47;98736.32;;;8.30;100.00
11413;BME280;5762;43.256;26.960;2024-01-15T11:18:19;98725.95;;;8.46;100.00
11413;BME280;5762;43.256;26.960;2024-01-15T11:23:53;98704.48;;;8.63;100.00
11413;BME280;5762;43.256;26.960;2024-01-15T11:26:37;98708.06;;;8.70;100.00
11413;BME280;5762;43.256;26.960;2024-01-15T11:32:09;98692.23;;;8.77;100.00
11413;BME280;5762;43.256;26.960;2024-01-15T11:38:40;98681.58;;;8.72;100.00
11413;BME280;5762;43.256;26.960;2024-01-15T11:43:21;98679.44;;;8.91;100.00
11413;BME280;5762;43.256;26.960;2024-01-15T11:45:50;98676.08;;;8.86;100.00
11413;BME280;5762;43.256;26.960;2024-01-15T11:51:23;98672.45;;;8.90;100.00
11413;BME280;5762;43.256;26.960;2024-01-15T11:56:54;98660.86;;;8.90;100.00
11413;BME280;5762;43.256;26.960;2024-01-15T12:02:27;98648.27;;;8.96;100.00
11413;BME280;5762;43.256;26.960;2024-01-15T12:07:58;98647.80;;;9.12;100.00
11413;BME280;5762;43.256;26.960;2024-01-15T12:13:30;98638.11;;;9.11;100.00
11413;BME280;5762;43.256;26.960;2024-01-15T12:19:01;98644.72;;;9.16;100.00
11413;BME280;5762;43.256;26.960;2024-01-15T12:24:33;98666.41;;;9.22;100.00
11413;BME280;5762;43.256;26.960;2024-01-15T12:27:02;98670.52;;;9.19;100.00
11413;BME280;5762;43.256;26.960;2024-01-15T12:29:31;98668.23;;;9.24;100.00
11413;BME280;5762;43.256;26.960;2024-01-15T12:35:05;98687.70;;;9.32;100.00
11413;BME280;5762;43.256;26.960;2024-01-15T12:40:37;98697.55;;;9.45;100.00
11413;BME280;5762;43.256;26.960;2024-01-15T12:43:06;98697.17;;;9.58;100.00
11413;BME280;5762;43.256;26.960;2024-01-15T12:48:39;98655.61;;;9.73;100.00
11413;BME280;5762;43.256;26.960;2024-01-15T12:51:08;98638.00;;;9.59;100.00
11413;BME280;5762;43.256;26.960;2024-01-15T12:56:39;98634.97;;;9.43;100.00
11413;BME280;5762;43.256;26.960;2024-01-15T12:59:08;98644.19;;;9.33;100.00
11413;BME280;5762;43.256;26.960;2024-01-15T13:04:40;98649.11;;;9.49;100.00
11413;BME280;5762;43.256;26.960;2024-01-15T13:10:12;98655.77;;;9.25;100.00
11413;BME280;5762;43.256;26.960;2024-01-15T13:15:47;98659.34;;;8.86;100.00
11413;BME280;5762;43.256;26.960;2024-01-15T13:21:19;98655.53;;;8.67;100.00
11413;BME280;5762;43.256;26.960;2024-01-15T13:23:47;98650.87;;;8.70;100.00
11413;BME280;5762;43.256;26.960;2024-01-15T13:29:14;98650.90;;;8.79;100.00
11413;BME280;5762;43.256;26.960;2024-01-15T13:31:42;98626.63;;;8.79;100.00
11413;BME280;5762;43.256;26.960;2024-01-15T13:34:11;98616.00;;;8.83;100.00
11413;BME280;5762;43.256;26.960;2024-01-15T13:39:43;98613.27;;;8.46;100.00
11413;BME280;5762;43.256;26.960;2024-01-15T13:42:12;98620.59;;;8.34;100.00
11413;BME280;5762;43.256;26.960;2024-01-15T13:47:44;98621.03;;;8.27;100.00
11413;BME280;5762;43.256;26.960;2024-01-15T13:53:17;98607.44;;;8.21;100.00
11413;BME280;5762;43.256;26.960;2024-01-15T13:58:48;98602.98;;;8.17;100.00
11413;BME280;5762;43.256;26.960;2024-01-15T14:04:21;98613.45;;;8.18;100.00
11413;BME280;5762;43.256;26.960;2024-01-15T14:09:53;98597.58;;;7.97;100.00
11413;BME280;5762;43.256;26.960;2024-01-15T14:15:25;98603.71;;;7.78;100.00
11413;BME280;5762;43.256;26.960;2024-01-15T14:20:57;98616.52;;;7.50;100.00
11413;BME280;5762;43.256;26.960;2024-01-15T14:26:29;98631.00;;;7.40;100.00
11413;BME280;5762;43.256;26.960;2024-01-15T14:32:01;98625.31;;;7.42;100.00
11413;BME280;5762;43.256;26.960;2024-01-15T14:37:28;98626.02;;;6.97;100.00
11413;BME280;5762;43.256;26.960;2024-01-15T14:39:56;98638.80;;;6.92;100.00
11413;BME280;5762;43.256;26.960;2024-01-15T14:42:25;98635.87;;;6.77;100.00
11413;BME280;5762;43.256;26.960;2024-01-15T14:47:57;98637.61;;;6.43;100.00
11413;BME280;5762;43.256;26.960;2024-01-15T14:53:29;98653.88;;;6.22;100.00
11413;BME280;5762;43.256;26.960;2024-01-15T14:59:00;98681.32;;;6.19;100.00
11413;BME280;5762;43.256;26.960;2024-01-15T15:04:31;98673.77;;;6.21;100.00
11413;BME280;5762;43.256;26.960;2024-01-15T15:10:04;98684.90;;;5.79;100.00
11413;BME280;5762;43.256;26.960;2024-01-15T15:15:36;98712.07;;;5.37;100.00
11413;BME280;5762;43.256;26.960;2024-01-15T15:21:08;98734.17;;;5.29;100.00
11413;BME280;5762;43.256;26.960;2024-01-15T15:23:37;98734.32;;;5.19;100.00
11413;BME280;5762;43.256;26.960;2024-01-15T15:29:09;98757.42;;;4.91;100.00
11413;BME280;5762;43.256;26.960;2024-01-15T15:34:41;98760.28;;;4.76;100.00
11413;BME280;5762;43.256;26.960;2024-01-15T15:40:08;98756.88;;;4.68;100.00
11413;BME280;5762;43.256;26.960;2024-01-15T15:42:36;98751.84;;;4.61;100.00
11413;BME280;5762;43.256;26.960;2024-01-15T15:45:05;98762.58;;;4.59;100.00
11413;BME280;5762;43.256;26.960;2024-01-15T15:50:38;98792.83;;;4.33;100.00
11413;BME280;5762;43.256;26.960;2024-01-15T15:56:09;98815.00;;;4.41;100.00
11413;BME280;5762;43.256;26.960;2024-01-15T16:01:41;98810.72;;;4.40;100.00
11413;BME280;5762;43.256;26.960;2024-01-15T16:07:12;98796.87;;;4.59;100.00
11413;BME280;5762;43.256;26.960;2024-01-15T16:12:43;98790.56;;;4.77;100.00
11413;BME280;5762;43.256;26.960;2024-01-15T16:18:15;98802.02;;;4.85;100.00
11413;BME280;5762;43.256;26.960;2024-01-15T16:23:48;98795.31;;;4.85;100.00
11413;BME280;5762;43.256;26.960;2024-01-15T16:29:19;98773.41;;;5.01;100.00
11413;BME280;5762;43.256;26.960;2024-01-15T16:34:51;98755.32;;;5.12;100.00
11413;BME280;5762;43.256;26.960;2024-01-15T16:40:17;98792.47;;;5.21;100.00
11413;BME280;5762;43.256;26.960;2024-01-15T16:42:46;98791.78;;;5.34;100.00
11413;BME280;5762;43.256;26.960;2024-01-15T16:48:18;98776.11;;;5.44;100.00
11413;BME280;5762;43.256;26.960;2024-01-15T16:53:50;98746.56;;;5.65;100.00
11413;BME280;5762;43.256;26.960;2024-01-15T16:59:21;98706.91;;;5.97;100.00
11413;BME280;5762;43.256;26.960;2024-01-15T17:04:54;98664.74;;;6.14;100.00
11413;BME280;5762;43.256;26.960;2024-01-15T17:10:25;98651.98;;;6.36;100.00
11413;BME280;5762;43.256;26.960;2024-01-15T17:15:57;98661.12;;;6.51;100.00
11413;BME280;5762;43.256;26.960;2024-01-15T17:21:29;98620.65;;;6.45;100.00
11413;BME280;5762;43.256;26.960;2024-01-15T17:27:00;98623.92;;;6.42;100.00
11413;BME280;5762;43.256;26.960;2024-01-15T17:32:33;98643.77;;;6.16;100.00
11413;BME280;5762;43.256;26.960;2024-01-15T17:38:04;98711.71;;;6.17;100.00
11413;BME280;5762;43.256;26.960;2024-01-15T17:40:35;98719.23;;;6.17;100.00
11413;BME280;5762;43.256;26.960;2024-01-15T17:46:07;98715.21;;;6.31;100.00
11413;BME280;5762;43.256;26.960;2024-01-15T17:51:39;98629.89;;;6.66;100.00
11413;BME280;5762;43.256;26.960;2024-01-15T17:57:10;98626.05;;;6.84;100.00
11413;BME280;5762;43.256;26.960;2024-01-15T18:02:42;98599.06;;;7.00;100.00
11413;BME280;5762;43.256;26.960;2024-01-15T18:08:14;98619.06;;;7.21;100.00
11413;BME280;5762;43.256;26.960;2024-01-15T18:13:46;98576.61;;;7.40;100.00
11413;BME280;5762;43.256;26.960;2024-01-15T18:19:18;98558.94;;;7.48;100.00
11413;BME280;5762;43.256;26.960;2024-01-15T18:24:50;98531.47;;;7.37;100.00
11413;BME280;5762;43.256;26.960;2024-01-15T18:30:22;98526.58;;;7.39;100.00
11413;BME280;5762;43.256;26.960;2024-01-15T18:35:54;98545.29;;;7.33;100.00
11413;BME280;5762;43.256;26.960;2024-01-15T18:41:26;98564.75;;;7.42;100.00
11413;BME280;5762;43.256;26.960;2024-01-15T18:43:55;98544.55;;;7.30;100.00
11413;BME280;5762;43.256;26.960;2024-01-15T18:49:27;98560.72;;;7.19;100.00
11413;BME280;5762;43.256;26.960;2024-01-15T18:54:59;98544.98;;;7.35;100.00
11413;BME280;5762;43.256;26.960;2024-01-15T19:00:27;98542.39;;;7.63;100.00
11413;BME280;5762;43.256;26.960;2024-01-15T19:05:58;98513.31;;;7.74;100.00
11413;BME280;5762;43.256;26.960;2024-01-15T19:11:30;98492.02;;;7.75;100.00
11413;BME280;5762;43.256;26.960;2024-01-15T19:17:02;98487.19;;;7.32;100.00
11413;BME280;5762;43.256;26.960;2024-01-15T19:22:34;98482.32;;;7.12;100.00
11413;BME280;5762;43.256;26.960;2024-01-15T19:28:06;98485.86;;;6.99;100.00
11413;BME280;5762;43.256;26.960;2024-01-15T19:33:38;98516.73;;;6.41;100.00
11413;BME280;5762;43.256;26.960;2024-01-15T19:36:07;98532.78;;;6.18;100.00
11413;BME280;5762;43.256;26.960;2024-01-15T19:41:39;98543.19;;;6.22;100.00
11413;BME280;5762;43.256;26.960;2024-01-15T19:47:05;98502.06;;;6.85;100.00
11413;BME280;5762;43.256;26.960;2024-01-15T19:49:34;98478.11;;;7.20;100.00
11413;BME280;5762;43.256;26.960;2024-01-15T19:52:03;98470.97;;;7.46;100.00
11413;BME280;5762;43.256;26.960;2024-01-15T19:57:35;98505.97;;;7.77;100.00
11413;BME280;5762;43.256;26.960;2024-01-15T20:03:07;98480.30;;;7.99;100.00
11413;BME280;5762;43.256;26.960;2024-01-15T20:08:39;98459.33;;;7.59;100.00
11413;BME280;5762;43.256;26.960;2024-01-15T20:14:11;98486.97;;;7.20;100.00
11413;BME280;5762;43.256;26.960;2024-01-15T20:19:44;98486.96;;;7.09;100.00
11413;BME280;5762;43.256;26.960;2024-01-15T20:25:17;98501.31;;;6.93;100.00
11413;BME280;5762;43.256;26.960;2024-01-15T20:30:49;98492.77;;;7.02;100.00
11413;BME280;5762;43.256;26.960;2024-01-15T20:36:17;98506.05;;;7.21;100.00
11413;BME280;5762;43.256;26.960;2024-01-15T20:38:45;98490.80;;;7.28;100.00
11413;BME280;5762;43.256;26.960;2024-01-15T20:44:17;98486.30;;;7.15;100.00
11413;BME280;5762;43.256;26.960;2024-01-15T20:49:49;98492.84;;;7.11;100.00
11413;BME280;5762;43.256;26.960;2024-01-15T20:52:18;98479.94;;;7.22;100.00
11413;BME280;5762;43.256;26.960;2024-01-15T20:57:50;98502.84;;;7.42;100.00
11413;BME280;5762;43.256;26.960;2024-01-15T21:03:16;98461.61;;;8.03;100.00
11413;BME280;5762;43.256;26.960;2024-01-15T21:05:45;98445.05;;;8.27;100.00
11413;BME280;5762;43.256;26.960;2024-01-15T21:11:17;98425.11;;;8.80;100.00
11413;BME280;5762;43.256;26.960;2024-01-15T21:16:48;98436.38;;;8.99;100.00
11413;BME280;5762;43.256;26.960;2024-01-15T21:22:21;98477.13;;;9.15;100.00
11413;BME280;5762;43.256;26.960;2024-01-15T21:27:48;98390.84;;;9.21;100.00
11413;BME280;5762;43.256;26.960;2024-01-15T21:30:17;98412.66;;;9.22;100.00
11413;BME280;5762;43.256;26.960;2024-01-15T21:35:49;98390.75;;;9.23;100.00
11413;BME280;5762;43.256;26.960;2024-01-15T21:41:21;98386.21;;;9.30;100.00
11413;BME280;5762;43.256;26.960;2024-01-15T21:46:53;98390.84;;;9.21;100.00
11413;BME280;5762;43.256;26.960;2024-01-15T21:52:26;98429.70;;;8.88;100.00
11413;BME280;5762;43.256;26.960;2024-01-15T21:57:53;98469.69;;;8.77;100.00
11413;BME280;5762;43.256;26.960;2024-01-15T22:00:22;98467.39;;;8.82;100.00
11413;BME280;5762;43.256;26.960;2024-01-15T22:02:50;98485.64;;;8.85;100.00
11413;BME280;5762;43.256;26.960;2024-01-15T22:08:22;98499.44;;;8.74;100.00
11413;BME280;5762;43.256;26.960;2024-01-15T22:10:50;98515.00;;;8.86;100.00
11413;BME280;5762;43.256;26.960;2024-01-15T22:16:22;98520.48;;;8.84;100.00
11413;BME280;5762;43.256;26.960;2024-01-15T22:21:53;98569.28;;;9.02;100.00
11413;BME280;5762;43.256;26.960;2024-01-15T22:27:24;98523.89;;;9.13;100.00
11413;BME280;5762;43.256;26.960;2024-01-15T22:32:56;98491.10;;;9.08;100.00
11413;BME280;5762;43.256;26.960;2024-01-15T22:38:28;98551.57;;;9.41;100.00
11413;BME280;5762;43.256;26.960;2024-01-15T22:44:00;98481.83;;;9.52;100.00
11413;BME280;5762;43.256;26.960;2024-01-15T22:49:33;98453.09;;;9.39;100.00
11413;BME280;5762;43.256;26.960;2024-01-15T22:55:05;98484.70;;;8.98;100.00
11413;BME280;5762;43.256;26.960;2024-01-15T22:57:35;98502.00;;;8.97;100.00
11413;BME280;5762;43.256;26.960;2024-01-15T23:00:04;98503.19;;;8.93;100.00
11413;BME280;5762;43.256;26.960;2024-01-15T23:02:33;98510.48;;;8.84;100.00
11413;BME280;5762;43.256;26.960;2024-01-15T23:05:02;98523.80;;;8.81;100.00
11413;BME280;5762;43.256;26.960;2024-01-15T23:10:34;98535.17;;;8.97;100.00
11413;BME280;5762;43.256;26.960;2024-01-15T23:16:06;98535.01;;;9.20;100.00
11413;BME280;5762;43.256;26.960;2024-01-15T23:21:38;98523.14;;;9.44;100.00
11413;BME280;5762;43.256;26.960;2024-01-15T23:27:10;98457.98;;;9.78;100.00
11413;BME280;5762;43.256;26.960;2024-01-15T23:32:43;98464.97;;;9.79;100.00
11413;BME280;5762;43.256;26.960;2024-01-15T23:35:12;98459.95;;;9.68;100.00
11413;BME280;5762;43.256;26.960;2024-01-15T23:40:45;98454.45;;;9.39;100.00
11413;BME280;5762;43.256;26.960;2024-01-15T23:46:17;98501.19;;;9.14;100.00
11413;BME280;5762;43.256;26.960;2024-01-15T23:51:52;98555.62;;;8.81;100.00
11413;BME280;5762;43.256;26.960;2024-01-15T23:54:20;98543.98;;;9.00;100.00
11413;BME280;5762;43.256;26.960;2024-01-15T23:56:49;98524.61;;;9.24;100.00
